Terminal Aerodrome Forecast
Issued by NWS

Home | Current Version | Previous Version | Graphics & Text | Print | Product List | Glossary On
Versions: 1 2 3 4 5 6 7 8 9 10 11 12 13 14 15 16 17 18 19 20 21 22 23
000
FTUS43 KTOP 260903 AAB
TAFMHK
TAF AMD
KMHK 260903Z 2609/2706 23003KT 1SM BR MIFG VV002
      TEMPO 2609/2613 1/2SM FG
     FM261500 27006KT P6SM FEW040
     FM262100 35010KT P6SM BKN100=

USA.gov is the U.S. government's official web portal to all federal, state and local government web resources and services.